Ceylon, Minnesota
Current Conditions -  °F | °C
As of 10:52 AM on Friday 31 Oct 2014 (Local Time) from KEST Reporting Station
Clear Clear  
Wind Chill: 18°   Ceiling: Unl
Heat Index: 30°   Visibility: 10mi
Dew Point: 17°   Wind: 17mph
Humidity: 59%   Direction: 20°NNE
Pressure: 30.55"   Gusts: 23mph
Location:  43.53°N, 94.63°W
Report Text: KEST 311552Z AUTO 02015G20KT 10SM CLR M01/M08 A3055 RMK AO2 SLP362 T10111083
Loading
Personal Weather Stations






























Interactive Weather Map
Tropical Storm Tracking
New forecast layout! Learn more

10-Day Weather Forecast

Advertisements
Track Severe Weather on mobile